Time;durP1;ratioP1;P1;durP2;ratioP2;P2;SDS_P1;SDS_P2;PMS_P1;PMS_P2;Temp;Humidity;BMP_temperature;BMP_pressure;BME280_temperature;BME280_humidity;BME280_pressure;Samples;Min_cycle;Max_cycle;Signal;HPM_P1;HPM_P2
2022/09/04 00:01:18;;;;;;;8.55;2.75;;;17.30;81.70;;;;;;5033929;28;20095;-72
2022/09/04 00:04:18;;;;;;;6.20;2.30;;;17.20;81.70;;;;;;5035968;28;20044;-72
2022/09/04 00:07:07;;;;;;;6.57;2.00;;;17.20;81.60;;;;;;5034321;28;20075;-72
2022/09/04 00:09:47;;;;;;;4.05;1.77;;;17.20;81.60;;;;;;5030349;28;20029;-73
2022/09/04 00:12:14;;;;;;;5.10;2.40;;;17.20;81.40;;;;;;5031113;28;20045;-73
2022/09/04 00:15:12;;;;;;;3.20;2.47;;;17.20;81.30;;;;;;5033918;28;20022;-73
2022/09/04 00:17:57;;;;;;;4.45;1.98;;;17.20;81.30;;;;;;5033824;28;20029;-72
2022/09/04 00:20:41;;;;;;;9.90;2.13;;;17.10;81.20;;;;;;5031924;28;20060;-72
2022/09/04 00:23:24;;;;;;;8.68;2.67;;;17.10;81.20;;;;;;5028497;28;20124;-72
2022/09/04 00:26:15;;;;;;;4.90;2.03;;;17.10;81.10;;;;;;5037188;28;20518;-72
2022/09/04 00:28:48;;;;;;;10.40;1.83;;;17.10;80.80;;;;;;5030335;28;20021;-71
2022/09/04 00:31:36;;;;;;;4.97;1.48;;;17.10;81.00;;;;;;5029767;28;20017;-72
2022/09/04 00:34:20;;;;;;;1.88;1.30;;;17.10;81.00;;;;;;5028378;28;20037;-72
2022/09/04 00:36:53;;;;;;;2.60;1.45;;;17.00;80.60;;;;;;5031848;28;20487;-71
2022/09/04 00:39:27;;;;;;;5.10;1.95;;;17.00;80.30;;;;;;5032901;28;20036;-71
2022/09/04 00:42:32;;;;;;;4.77;1.30;;;17.00;80.00;;;;;;5026190;28;20029;-72
2022/09/04 00:45:47;;;;;;;6.55;1.92;;;16.90;79.70;;;;;;5029161;28;20034;-71
2022/09/04 00:48:33;;;;;;;4.70;1.60;;;16.90;79.30;;;;;;4980615;28;20061;-72
2022/09/04 00:51:20;;;;;;;16.08;2.30;;;16.90;78.80;;;;;;5031053;28;20392;-71
2022/09/04 00:54:08;;;;;;;8.05;1.48;;;16.90;78.70;;;;;;5038822;28;20099;-71
2022/09/04 00:56:44;;;;;;;6.72;2.15;;;16.90;78.30;;;;;;5033057;28;20117;-71
2022/09/04 00:59:19;;;;;;;5.68;1.95;;;16.80;77.70;;;;;;5037312;28;20048;-71
2022/09/04 01:01:46;;;;;;;10.93;1.55;;;16.80;77.30;;;;;;5041746;28;20079;-71
2022/09/04 01:04:51;;;;;;;3.63;1.17;;;16.80;77.50;;;;;;5033505;28;20030;-71
2022/09/04 01:07:36;;;;;;;1.27;1.17;;;16.80;77.20;;;;;;5031946;28;20045;-71
2022/09/04 01:10:31;;;;;;;3.97;1.15;;;16.70;77.00;;;;;;5033223;28;20029;-72
2022/09/04 01:13:40;;;;;;;6.55;1.20;;;16.70;76.90;;;;;;5035641;28;20049;-71
2022/09/04 01:16:16;;;;;;;2.03;0.88;;;16.70;76.50;;;;;;5033737;28;20040;-71
2022/09/04 01:19:04;;;;;;;4.65;1.15;;;16.70;76.40;;;;;;5036487;28;20212;-72
2022/09/04 01:21:43;;;;;;;6.88;1.60;;;16.70;76.30;;;;;;5034906;28;20033;-71
2022/09/04 01:24:31;;;;;;;5.68;1.10;;;16.60;76.00;;;;;;5024791;28;20025;-72
2022/09/04 01:27:21;;;;;;;4.47;1.00;;;16.60;76.30;;;;;;5033280;28;20037;-72
2022/09/04 01:30:00;;;;;;;6.28;1.33;;;16.60;76.20;;;;;;5035270;28;20392;-72
2022/09/04 01:32:35;;;;;;;2.70;1.27;;;16.50;76.20;;;;;;5034702;28;20025;-72
2022/09/04 01:35:20;;;;;;;3.15;1.55;;;16.50;76.10;;;;;;5037867;28;20480;-72
2022/09/04 01:38:15;;;;;;;4.53;1.23;;;16.50;76.30;;;;;;5032382;28;20063;-71
2022/09/04 01:41:00;;;;;;;2.95;1.25;;;16.50;76.50;;;;;;5034212;28;20071;-72
2022/09/04 01:43:27;;;;;;;3.15;1.00;;;16.50;76.30;;;;;;5032645;28;20129;-71
2022/09/04 01:46:03;;;;;;;3.42;1.30;;;16.50;76.20;;;;;;5036798;28;20039;-72
2022/09/04 01:48:59;;;;;;;4.40;1.10;;;16.50;76.20;;;;;;5039697;28;20496;-72
2022/09/04 01:51:44;;;;;;;2.58;1.00;;;16.50;76.50;;;;;;5017924;28;20041;-72
2022/09/04 01:54:25;;;;;;;4.60;1.00;;;16.50;76.80;;;;;;5029388;28;20029;-72
2022/09/04 01:57:22;;;;;;;1.63;0.80;;;16.50;76.70;;;;;;5029411;28;20546;-72
2022/09/04 02:00:01;;;;;;;1.08;0.55;;;16.50;76.60;;;;;;5070349;28;20380;-72
2022/09/04 02:02:52;;;;;;;1.13;0.50;;;16.40;76.50;;;;;;5034803;28;20056;-72
2022/09/04 02:05:59;;;;;;;1.17;0.75;;;16.40;76.30;;;;;;5034807;28;20026;-72
2022/09/04 02:08:54;;;;;;;2.80;0.77;;;16.40;76.20;;;;;;5026350;28;20029;-72
2022/09/04 02:11:31;;;;;;;1.83;0.45;;;16.40;76.10;;;;;;5035727;28;20076;-72
2022/09/04 02:14:16;;;;;;;0.82;0.40;;;16.30;75.90;;;;;;5030476;28;20032;-72
2022/09/04 02:17:07;;;;;;;3.10;0.57;;;16.30;75.80;;;;;;5033635;28;20037;-71
2022/09/04 02:20:04;;;;;;;1.48;1.15;;;16.30;75.80;;;;;;5036760;28;20056;-72
2022/09/04 02:22:55;;;;;;;0.73;0.50;;;16.30;75.90;;;;;;5038324;28;20492;-71
2022/09/04 02:25:28;;;;;;;5.93;0.73;;;16.30;75.80;;;;;;5032574;28;20017;-72
2022/09/04 02:28:26;;;;;;;1.85;0.88;;;16.20;76.00;;;;;;5026342;28;20021;-71
2022/09/04 02:31:08;;;;;;;1.10;0.73;;;16.20;76.30;;;;;;5034635;28;20061;-71
2022/09/04 02:33:42;;;;;;;2.88;0.88;;;16.30;76.30;;;;;;5025586;28;20041;-72
2022/09/04 02:36:15;;;;;;;6.93;1.10;;;16.20;76.50;;;;;;5032870;28;20516;-72
2022/09/04 02:38:59;;;;;;;1.38;0.52;;;16.20;76.60;;;;;;5032500;28;20087;-72
2022/09/04 02:41:31;;;;;;;3.45;1.00;;;16.20;76.70;;;;;;5028120;28;20485;-71
2022/09/04 02:44:24;;;;;;;2.40;1.45;;;16.30;76.70;;;;;;5031255;28;20029;-71
2022/09/04 02:47:03;;;;;;;0.93;0.80;;;16.30;76.90;;;;;;5031492;28;20029;-71
2022/09/04 02:49:48;;;;;;;1.35;0.98;;;16.30;76.90;;;;;;5030746;28;20021;-71
2022/09/04 02:52:32;;;;;;;3.90;1.30;;;16.30;76.80;;;;;;5036387;28;20027;-71
2022/09/04 02:55:27;;;;;;;10.27;1.55;;;16.20;76.80;;;;;;5031491;28;20108;-71
2022/09/04 02:58:30;;;;;;;2.45;1.52;;;16.20;76.90;;;;;;5026235;28;20025;-71
2022/09/04 03:01:09;;;;;;;2.00;0.80;;;16.20;76.90;;;;;;5030957;28;20038;-71
2022/09/04 03:03:55;;;;;;;2.55;0.90;;;16.20;76.80;;;;;;5032531;28;20090;-71
2022/09/04 03:06:47;;;;;;;0.65;0.47;;;16.10;76.70;;;;;;5034196;28;20018;-71
2022/09/04 03:09:46;;;;;;;1.67;1.02;;;16.10;76.60;;;;;;5029141;28;20036;-71
2022/09/04 03:12:49;;;;;;;0.68;0.65;;;16.10;76.90;;;;;;5032959;28;20029;-71
2022/09/04 03:15:39;;;;;;;2.10;0.70;;;16.10;76.90;;;;;;5029969;28;20113;-71
2022/09/04 03:18:23;;;;;;;2.15;0.60;;;16.00;77.00;;;;;;5028638;28;20059;-71
2022/09/04 03:21:15;;;;;;;2.38;0.75;;;16.00;77.30;;;;;;5033808;28;20032;-71
2022/09/04 03:23:49;;;;;;;3.50;0.50;;;16.00;77.90;;;;;;5028429;28;20048;-71
2022/09/04 03:26:30;;;;;;;1.38;0.70;;;16.00;78.30;;;;;;5037081;28;20052;-71
2022/09/04 03:29:09;;;;;;;1.88;0.70;;;16.00;78.40;;;;;;5025669;28;20025;-71
2022/09/04 03:31:54;;;;;;;1.10;0.98;;;16.00;78.50;;;;;;5032408;28;20052;-71
2022/09/04 03:34:32;;;;;;;1.25;1.00;;;16.00;78.30;;;;;;5034385;28;20030;-71
2022/09/04 03:37:11;;;;;;;1.70;1.20;;;16.00;78.20;;;;;;5027487;28;20062;-71
2022/09/04 03:39:44;;;;;;;1.55;1.10;;;16.00;78.40;;;;;;5027007;28;20033;-71
2022/09/04 03:42:22;;;;;;;1.85;1.10;;;15.90;78.30;;;;;;5033704;28;20042;-71
2022/09/04 03:45:19;;;;;;;4.10;1.27;;;16.00;78.60;;;;;;5038404;28;20112;-72
2022/09/04 03:47:55;;;;;;;2.95;1.40;;;15.90;78.60;;;;;;5036083;28;20025;-71
2022/09/04 03:50:46;;;;;;;2.65;1.20;;;15.90;78.70;;;;;;5022479;28;20032;-71
2022/09/04 03:53:28;;;;;;;2.38;1.20;;;15.90;79.00;;;;;;5031169;28;20077;-71
2022/09/04 03:56:06;;;;;;;6.00;1.10;;;15.90;78.90;;;;;;5034260;28;20037;-71
2022/09/04 03:59:05;;;;;;;1.25;0.90;;;15.90;78.60;;;;;;5031830;28;20388;-72
2022/09/04 04:01:48;;;;;;;1.70;0.93;;;15.90;78.40;;;;;;5036050;28;20028;-71
2022/09/04 04:04:42;;;;;;;2.25;0.90;;;15.90;78.10;;;;;;5029035;28;20026;-72
2022/09/04 04:07:23;;;;;;;1.10;0.88;;;15.80;77.80;;;;;;5033365;28;20018;-71
2022/09/04 04:10:44;;;;;;;1.27;0.57;;;15.80;77.80;;;;;;5031855;28;20096;-71
2022/09/04 04:13:20;;;;;;;1.02;0.70;;;15.80;78.00;;;;;;5025668;28;20504;-71
2022/09/04 04:16:02;;;;;;;1.13;0.60;;;15.80;78.20;;;;;;5035648;28;20045;-72
2022/09/04 04:18:47;;;;;;;1.88;0.77;;;15.80;78.30;;;;;;5036935;28;20108;-71
2022/09/04 04:21:56;;;;;;;3.60;0.98;;;15.80;78.60;;;;;;5031173;28;20018;-71
2022/09/04 04:24:47;;;;;;;1.73;0.60;;;15.80;78.60;;;;;;5039295;28;20121;-71
2022/09/04 04:27:16;;;;;;;3.03;0.98;;;15.80;78.60;;;;;;5037590;28;20090;-71
2022/09/04 04:29:53;;;;;;;2.65;1.08;;;15.70;78.60;;;;;;5032514;28;20029;-71
2022/09/04 04:32:32;;;;;;;1.95;0.80;;;15.80;78.90;;;;;;5037317;28;20030;-71
2022/09/04 04:35:15;;;;;;;1.67;0.70;;;15.70;79.00;;;;;;5032799;28;20044;-71
2022/09/04 04:38:17;;;;;;;3.15;0.68;;;15.70;79.00;;;;;;5031726;28;20025;-71
2022/09/04 04:41:13;;;;;;;2.28;1.25;;;15.70;78.70;;;;;;5037378;28;20083;-71
2022/09/04 04:43:58;;;;;;;5.32;1.40;;;15.70;78.80;;;;;;5034335;28;20033;-70
2022/09/04 04:47:00;;;;;;;3.37;1.07;;;15.70;78.80;;;;;;5035577;28;20022;-71
2022/09/04 04:49:57;;;;;;;1.90;0.90;;;15.70;79.00;;;;;;5034997;28;20028;-71
2022/09/04 04:52:28;;;;;;;3.25;1.02;;;15.70;79.10;;;;;;5031054;28;20068;-71
2022/09/04 04:55:16;;;;;;;4.00;0.93;;;15.60;79.20;;;;;;5029539;28;20036;-71
2022/09/04 04:58:10;;;;;;;1.95;0.75;;;15.60;79.20;;;;;;5033107;28;20029;-71
2022/09/04 05:01:02;;;;;;;4.57;1.67;;;15.60;79.10;;;;;;5031981;28;20397;-71
2022/09/04 05:03:43;;;;;;;2.83;0.77;;;15.60;79.10;;;;;;5036457;28;20044;-71
2022/09/04 05:06:35;;;;;;;2.92;0.93;;;15.50;79.00;;;;;;5036195;28;20083;-71
2022/09/04 05:09:36;;;;;;;3.58;0.55;;;15.50;79.10;;;;;;5037220;28;20664;-71
2022/09/04 05:12:19;;;;;;;18.52;12.13;;;15.50;79.10;;;;;;5028667;28;20576;-71
2022/09/04 05:14:57;;;;;;;8.35;4.40;;;15.50;79.30;;;;;;5038511;28;20087;-69
2022/09/04 05:17:55;;;;;;;3.67;1.40;;;15.50;79.20;;;;;;5034069;28;20488;-70
2022/09/04 05:20:30;;;;;;;2.67;1.63;;;15.50;80.10;;;;;;5031737;28;20025;-71
2022/09/04 05:23:00;;;;;;;;;;;15.50;80.80;;;;;;5028904;28;20037;-71
2022/09/04 05:25:55;;;;;;;2.03;0.95;;;15.50;80.90;;;;;;5034967;28;19921;-71
2022/09/04 05:28:44;;;;;;;3.72;1.38;;;15.50;80.60;;;;;;5034200;28;20400;-70
2022/09/04 05:31:11;;;;;;;3.50;1.23;;;15.50;81.00;;;;;;5027458;28;20384;-71
2022/09/04 05:34:04;;;;;;;3.58;1.13;;;15.50;80.60;;;;;;5037098;28;20037;-71
2022/09/04 05:37:01;;;;;;;2.10;0.75;;;15.40;80.40;;;;;;5031959;28;20102;-70
2022/09/04 05:40:02;;;;;;;6.63;1.27;;;15.50;80.60;;;;;;5023905;28;20043;-72
2022/09/04 05:43:01;;;;;;;6.22;1.42;;;15.50;80.70;;;;;;5036824;28;20045;-69
2022/09/04 05:45:46;;;;;;;7.72;1.40;;;15.40;81.10;;;;;;5034825;28;20060;-70
2022/09/04 05:48:21;;;;;;;12.30;1.35;;;15.50;81.30;;;;;;5038136;28;20034;-70
2022/09/04 05:51:17;;;;;;;;;;;15.50;81.10;;;;;;5033386;28;20118;-70
2022/09/04 05:54:13;;;;;;;4.30;1.02;;;15.50;81.10;;;;;;5037607;28;20291;-70
2022/09/04 05:57:11;;;;;;;3.45;1.55;;;15.50;81.00;;;;;;5021983;28;20041;-70
2022/09/04 06:00:00;;;;;;;1.95;0.70;;;15.50;81.20;;;;;;5032523;28;20519;-70
2022/09/04 06:02:42;;;;;;;1.83;1.08;;;15.50;81.20;;;;;;5035519;28;20029;-70
2022/09/04 06:05:27;;;;;;;3.55;0.85;;;15.50;81.20;;;;;;5033724;28;20104;-70
2022/09/04 06:08:24;;;;;;;8.40;1.33;;;15.50;81.30;;;;;;5026440;28;20045;-68
2022/09/04 06:11:28;;;;;;;17.42;6.80;;;15.50;81.50;;;;;;5033661;28;20028;-70
2022/09/04 06:14:10;;;;;;;6.70;4.47;;;15.50;82.20;;;;;;5035075;28;20039;-70
2022/09/04 06:16:46;;;;;;;8.50;2.60;;;15.60;82.80;;;;;;5032639;28;20397;-69
2022/09/04 06:19:23;;;;;;;8.73;2.75;;;15.60;83.10;;;;;;5027713;28;20065;-70
2022/09/04 06:22:04;;;;;;;7.03;1.85;;;15.70;83.60;;;;;;5030807;28;20523;-69
2022/09/04 06:24:58;;;;;;;3.95;1.10;;;15.70;83.60;;;;;;5027960;28;20033;-70
2022/09/04 06:27:44;;;;;;;7.20;1.25;;;15.70;83.80;;;;;;5025805;28;20404;-67
2022/09/04 06:30:12;;;;;;;5.07;2.33;;;15.80;83.90;;;;;;5025409;28;20018;-71
2022/09/04 06:32:56;;;;;;;6.55;2.08;;;15.80;84.10;;;;;;5023253;28;20021;-69
2022/09/04 06:36:01;;;;;;;27.27;20.48;;;15.80;84.30;;;;;;5024915;28;20068;-70
2022/09/04 06:38:48;;;;;;;21.35;13.05;;;15.80;84.20;;;;;;5020452;28;20527;-68
2022/09/04 06:41:17;;;;;;;11.90;5.88;;;15.80;84.40;;;;;;5026110;28;20034;-69
2022/09/04 06:44:02;;;;;;;5.15;3.42;;;15.80;84.40;;;;;;5025058;28;20513;-69
2022/09/04 06:46:55;;;;;;;3.75;2.03;;;15.90;84.70;;;;;;5024454;28;20039;-70
2022/09/04 06:49:43;;;;;;;5.82;1.50;;;15.90;84.70;;;;;;5019677;28;20129;-69
2022/09/04 06:52:28;;;;;;;6.82;1.30;;;15.90;84.60;;;;;;5017609;28;20405;-69
2022/09/04 06:55:27;;;;;;;10.35;1.70;;;16.00;84.50;;;;;;5022072;28;20508;-69
2022/09/04 06:58:07;;;;;;;8.93;2.95;;;16.00;84.40;;;;;;5024143;28;20610;-70
2022/09/04 07:00:57;;;;;;;2.15;1.25;;;16.00;84.60;;;;;;5025794;28;20017;-71
2022/09/04 07:03:43;;;;;;;2.85;1.33;;;16.00;84.60;;;;;;5021383;28;20125;-71
2022/09/04 07:06:24;;;;;;;3.47;0.75;;;16.00;84.40;;;;;;5021581;28;20116;-69
2022/09/04 07:09:33;;;;;;;6.93;0.77;;;16.00;84.50;;;;;;5018605;28;20426;-70
2022/09/04 07:12:32;;;;;;;1.13;0.60;;;16.10;84.60;;;;;;5023213;28;20029;-71
2022/09/04 07:15:36;;;;;;;8.48;0.80;;;16.10;84.50;;;;;;5021519;28;20026;-71
2022/09/04 07:18:40;;;;;;;2.55;1.38;;;16.10;84.70;;;;;;5021288;28;20045;-70
2022/09/04 07:21:14;;;;;;;2.03;0.57;;;16.20;84.90;;;;;;5019761;28;20480;-69
2022/09/04 07:23:52;;;;;;;5.13;2.17;;;16.20;84.80;;;;;;5021730;28;20045;-70
2022/09/04 07:26:41;;;;;;;13.85;3.83;;;16.30;85.00;;;;;;5021787;28;20028;-69
2022/09/04 07:29:11;;;;;;;6.88;0.95;;;16.30;85.10;;;;;;5021651;28;20088;-70
2022/09/04 07:31:57;;;;;;;1.38;0.50;;;16.40;85.10;;;;;;5019254;28;20137;-71
2022/09/04 07:34:40;;;;;;;4.95;2.08;;;16.40;84.90;;;;;;5021114;28;20476;-69
2022/09/04 07:37:38;;;;;;;2.25;0.95;;;16.40;84.80;;;;;;5018749;28;20049;-70
2022/09/04 07:40:22;;;;;;;1.40;0.60;;;16.50;85.20;;;;;;5039901;28;20088;-71
2022/09/04 07:43:17;;;;;;;4.32;0.70;;;16.50;84.30;;;;;;5023040;28;20154;-73
2022/09/04 07:46:08;;;;;;;3.63;1.02;;;16.50;84.00;;;;;;5025582;28;20127;-71
2022/09/04 07:48:40;;;;;;;3.90;2.35;;;16.60;83.60;;;;;;5026391;28;20054;-71
2022/09/04 07:51:36;;;;;;;2.05;0.80;;;16.60;83.30;;;;;;5024231;28;20112;-72
2022/09/04 07:54:42;;;;;;;0.85;0.45;;;16.60;83.20;;;;;;5025562;28;20519;-71
2022/09/04 07:57:30;;;;;;;2.10;0.65;;;16.70;83.00;;;;;;5018655;28;20088;-71
2022/09/04 08:00:32;;;;;;;6.53;1.00;;;16.70;82.80;;;;;;5022837;28;20021;-70
2022/09/04 08:03:15;;;;;;;3.13;1.35;;;16.80;82.60;;;;;;5020154;28;20041;-70
2022/09/04 08:06:37;;;;;;;2.53;0.88;;;16.90;82.30;;;;;;5025589;28;20057;-70
2022/09/04 08:09:09;;;;;;;6.32;1.10;;;16.90;82.00;;;;;;5024112;28;20065;-70
2022/09/04 08:12:11;;;;;;;2.15;0.70;;;17.00;81.60;;;;;;5026895;28;20487;-69
2022/09/04 08:14:50;;;;;;;3.72;2.03;;;17.00;81.20;;;;;;5004095;28;20092;-70
2022/09/04 08:17:41;;;;;;;8.90;4.95;;;17.00;80.90;;;;;;5026132;28;20484;-70
2022/09/04 08:20:43;;;;;;;10.00;1.88;;;17.00;80.80;;;;;;5023880;28;20041;-69
2022/09/04 08:23:09;;;;;;;19.85;4.07;;;17.10;80.70;;;;;;5024435;28;20484;-69
2022/09/04 08:26:14;;;;;;;6.10;1.83;;;17.10;80.70;;;;;;5026871;28;20087;-69
2022/09/04 08:29:22;;;;;;;7.30;1.10;;;17.10;80.60;;;;;;5036567;28;20028;-68
2022/09/04 08:32:13;;;;;;;5.13;0.75;;;17.10;80.30;;;;;;5024533;28;20124;-69
2022/09/04 08:34:50;;;;;;;9.40;2.35;;;17.20;80.00;;;;;;5028013;28;20612;-70
2022/09/04 08:37:26;;;;;;;6.85;1.52;;;17.20;79.60;;;;;;5031652;28;20029;-71
2022/09/04 08:40:30;;;;;;;5.57;0.73;;;17.20;79.20;;;;;;5033621;28;20013;-69
2022/09/04 08:43:02;;;;;;;5.35;1.65;;;17.20;79.00;;;;;;5029783;28;20048;-69
2022/09/04 08:45:57;;;;;;;7.88;2.55;;;17.20;78.70;;;;;;5024194;28;20529;-69
2022/09/04 08:49:18;;;;;;;10.15;1.73;;;17.20;79.10;;;;;;5028461;28;20037;-69
2022/09/04 08:52:21;;;;;;;10.23;1.50;;;17.30;78.30;;;;;;4993859;28;20038;-69
2022/09/04 08:55:15;;;;;;;17.08;1.95;;;17.30;78.10;;;;;;5027298;28;20147;-69
2022/09/04 08:58:09;;;;;;;2.55;1.23;;;17.30;77.70;;;;;;5024401;28;20021;-70
2022/09/04 09:00:56;;;;;;;10.38;1.85;;;17.40;77.30;;;;;;5028367;28;20083;-67
2022/09/04 09:03:44;;;;;;;9.35;1.73;;;17.40;77.20;;;;;;5031275;28;20032;-68
2022/09/04 09:06:45;;;;;;;13.88;1.20;;;17.40;76.90;;;;;;5027638;28;20057;-68
2022/09/04 09:09:30;;;;;;;6.78;2.80;;;17.50;76.50;;;;;;5032031;28;21025;-67
2022/09/04 09:12:26;;;;;;;12.98;1.88;;;17.50;76.10;;;;;;5025670;28;20057;-68
2022/09/04 09:15:12;;;;;;;10.52;1.30;;;17.50;75.80;;;;;;5029984;28;20416;-66
2022/09/04 09:18:20;;;;;;;5.53;1.05;;;17.60;75.30;;;;;;5034080;28;20036;-68
2022/09/04 09:21:06;;;;;;;19.15;3.13;;;17.70;75.00;;;;;;5030168;28;20103;-68
2022/09/04 09:23:43;;;;;;;;;;;17.70;74.60;;;;;;5033597;28;20404;-68
2022/09/04 09:26:29;;;;;;;13.52;3.80;;;17.70;74.50;;;;;;5031100;28;19909;-69
2022/09/04 09:29:07;;;;;;;15.55;2.72;;;17.70;74.20;;;;;;5039005;28;20028;-69
2022/09/04 09:32:02;;;;;;;8.65;1.77;;;17.80;73.70;;;;;;5032635;28;20029;-69
2022/09/04 09:34:37;;;;;;;9.32;1.80;;;17.80;73.20;;;;;;5032542;28;20502;-69
2022/09/04 09:37:21;;;;;;;15.05;1.98;;;17.80;73.00;;;;;;5036244;28;20049;-66
2022/09/04 09:39:51;;;;;;;11.90;1.65;;;17.80;73.20;;;;;;5032973;28;22731;-71
2022/09/04 09:42:48;;;;;;;13.02;2.88;;;17.90;73.60;;;;;;5022651;28;20048;-71
2022/09/04 09:45:35;;;;;;;7.28;2.58;;;17.90;73.60;;;;;;5030461;28;20480;-71
2022/09/04 09:48:26;;;;;;;8.02;2.08;;;17.90;73.60;;;;;;5018889;28;20041;-73
2022/09/04 09:51:57;;;;;;;7.57;1.40;;;18.00;73.60;;;;;;5035363;28;20546;-72
2022/09/04 09:55:20;;;;;;;10.73;1.17;;;17.90;73.20;;;;;;5011094;28;20042;-72
2022/09/04 09:58:34;;;;;;;12.70;2.17;;;18.00;73.20;;;;;;5002730;28;20124;-70
2022/09/04 10:01:32;;;;;;;14.35;2.25;;;18.00;73.10;;;;;;5026300;28;20030;-70
2022/09/04 10:04:25;;;;;;;16.35;3.58;;;18.00;72.90;;;;;;5035566;28;20041;-70
2022/09/04 10:07:20;;;;;;;9.35;1.85;;;18.00;72.40;;;;;;5033202;28;20086;-71
2022/09/04 10:10:13;;;;;;;14.70;2.92;;;18.00;72.20;;;;;;5035447;28;20503;-69
2022/09/04 10:12:58;;;;;;;10.43;1.50;;;18.10;72.00;;;;;;5032049;28;20032;-70
2022/09/04 10:16:02;;;;;;;7.90;1.80;;;18.10;72.00;;;;;;5039211;28;20026;-71
2022/09/04 10:18:52;;;;;;;13.95;1.83;;;18.10;72.20;;;;;;5031453;28;20294;-71
2022/09/04 10:21:41;;;;;;;8.95;2.25;;;18.10;72.10;;;;;;5032172;28;20029;-71
2022/09/04 10:24:36;;;;;;;10.73;1.65;;;18.10;72.20;;;;;;5030538;28;20523;-69
2022/09/04 10:27:42;;;;;;;7.13;2.70;;;18.10;72.30;;;;;;5022517;28;20098;-70
2022/09/04 10:30:20;;;;;;;9.85;1.63;;;18.10;72.50;;;;;;4997737;28;20103;-70
2022/09/04 10:33:09;;;;;;;10.43;1.52;;;18.10;72.30;;;;;;4998395;28;20044;-71
2022/09/04 10:35:44;;;;;;;17.05;1.55;;;18.10;72.20;;;;;;5024538;28;20053;-70
2022/09/04 10:38:17;;;;;;;9.23;2.45;;;18.10;72.20;;;;;;5030452;28;20029;-68
2022/09/04 10:41:28;;;;;;;8.10;2.20;;;18.10;72.20;;;;;;5030111;28;20091;-68
2022/09/04 10:44:29;;;;;;;14.27;3.30;;;18.10;71.90;;;;;;5015960;28;20627;-72
2022/09/04 10:47:06;;;;;;;11.45;2.45;;;18.00;71.50;;;;;;5030850;28;20029;-73
2022/09/04 10:49:38;;;;;;;19.23;2.72;;;18.00;71.40;;;;;;5025247;28;20060;-71
2022/09/04 10:52:29;;;;;;;13.40;1.98;;;18.00;71.10;;;;;;5030877;28;20033;-70
2022/09/04 10:55:17;;;;;;;7.45;1.25;;;17.90;71.00;;;;;;5033029;28;20033;-70
2022/09/04 10:57:44;;;;;;;4.82;1.67;;;17.90;71.30;;;;;;5029400;28;20040;-69
2022/09/04 11:00:28;;;;;;;19.88;2.75;;;17.80;71.70;;;;;;5032393;28;20061;-69
2022/09/04 11:03:37;;;;;;;8.32;1.60;;;17.80;72.10;;;;;;5031100;28;20421;-69
2022/09/04 11:06:25;;;;;;;8.20;1.58;;;17.80;72.30;;;;;;5029549;28;20021;-69
2022/09/04 11:09:14;;;;;;;10.35;1.67;;;17.70;72.50;;;;;;5029122;28;20041;-68
2022/09/04 11:12:00;;;;;;;7.32;2.78;;;17.70;72.60;;;;;;5027329;28;20033;-68
2022/09/04 11:14:38;;;;;;;15.82;2.38;;;17.70;72.40;;;;;;5028178;28;20025;-69
2022/09/04 11:17:11;;;;;;;5.82;1.50;;;17.70;72.60;;;;;;5024918;28;20038;-68
2022/09/04 11:20:14;;;;;;;9.27;2.22;;;17.70;73.00;;;;;;5034795;28;20058;-71
2022/09/04 11:22:53;;;;;;;13.30;3.40;;;17.60;72.90;;;;;;5032097;28;20080;-70
2022/09/04 11:26:22;;;;;;;18.80;3.60;;;17.60;72.60;;;;;;5062092;28;20033;-70
2022/09/04 11:29:17;;;;;;;10.07;4.68;;;17.70;72.60;;;;;;5040177;28;20116;-70
2022/09/04 11:31:51;;;;;;;18.23;3.10;;;17.60;72.50;;;;;;5035084;28;20021;-71
2022/09/04 11:34:39;;;;;;;11.80;1.83;;;17.60;72.40;;;;;;5028742;28;20037;-71
2022/09/04 11:37:24;;;;;;;11.05;2.15;;;17.60;72.70;;;;;;5028607;28;20045;-70
2022/09/04 11:40:19;;;;;;;13.00;1.45;;;17.50;73.00;;;;;;5026557;28;20041;-69
2022/09/04 11:42:59;;;;;;;8.40;1.73;;;17.50;73.90;;;;;;5028474;28;20068;-70
2022/09/04 11:46:01;;;;;;;3.95;1.30;;;17.50;74.60;;;;;;5034740;28;20589;-69
2022/09/04 11:48:52;;;;;;;9.43;1.85;;;17.50;75.30;;;;;;5038845;28;20098;-71
2022/09/04 11:51:38;;;;;;;6.93;1.60;;;17.40;75.50;;;;;;5031490;28;20029;-70
2022/09/04 11:54:23;;;;;;;4.30;1.35;;;17.40;75.70;;;;;;5022482;28;20040;-70
2022/09/04 11:57:28;;;;;;;5.18;1.90;;;17.40;76.20;;;;;;5034379;28;20122;-69
2022/09/04 12:00:11;;;;;;;10.70;1.77;;;17.40;77.00;;;;;;5030971;28;20052;-69
2022/09/04 12:03:03;;;;;;;7.00;3.50;;;17.30;79.30;;;;;;5034644;28;20637;-72
2022/09/04 12:05:39;;;;;;;8.60;1.83;;;17.30;80.00;;;;;;5032885;28;20377;-70
2022/09/04 12:08:42;;;;;;;4.07;1.52;;;17.20;79.90;;;;;;5032208;28;20025;-70
2022/09/04 12:11:31;;;;;;;5.97;1.88;;;17.20;80.10;;;;;;5030273;28;20091;-69
2022/09/04 12:14:36;;;;;;;7.57;1.60;;;17.20;80.40;;;;;;5028942;28;20060;-71
2022/09/04 12:17:44;;;;;;;5.88;1.90;;;17.20;81.60;;;;;;5018911;28;20110;-70
2022/09/04 12:20:30;;;;;;;10.00;2.60;;;17.10;82.20;;;;;;5021729;28;20049;-69
2022/09/04 12:23:21;;;;;;;7.35;2.10;;;17.10;82.60;;;;;;5022950;28;20307;-69
2022/09/04 12:25:50;;;;;;;8.73;2.33;;;17.10;83.50;;;;;;5032095;28;20063;-69
2022/09/04 12:28:38;;;;;;;16.95;4.70;;;17.10;83.90;;;;;;5031835;28;20028;-69
2022/09/04 12:31:33;;;;;;;16.67;5.13;;;17.10;84.10;;;;;;5027329;28;20057;-69
2022/09/04 12:34:29;;;;;;;16.02;5.35;;;17.00;84.20;;;;;;5032689;28;20050;-69
2022/09/04 12:37:10;;;;;;;15.50;4.07;;;17.10;84.30;;;;;;5032460;28;20045;-69
2022/09/04 12:40:15;;;;;;;12.15;3.85;;;17.00;84.40;;;;;;5030329;28;20062;-69
2022/09/04 12:42:48;;;;;;;18.40;5.13;;;17.00;84.50;;;;;;5032872;28;20049;-69
2022/09/04 12:45:14;;;;;;;7.70;2.83;;;17.00;84.80;;;;;;5035442;28;20029;-70
2022/09/04 12:48:09;;;;;;;11.75;3.65;;;17.00;84.80;;;;;;5040190;28;20036;-70
2022/09/04 12:50:44;;;;;;;11.53;2.80;;;16.90;85.00;;;;;;5037572;28;20124;-70
2022/09/04 12:53:24;;;;;;;10.75;2.92;;;16.90;85.00;;;;;;5031011;28;20329;-69
2022/09/04 12:56:15;;;;;;;10.48;2.60;;;16.90;85.10;;;;;;5038309;28;20032;-69
2022/09/04 12:59:27;;;;;;;13.10;2.92;;;16.90;85.10;;;;;;5033802;28;20061;-70
2022/09/04 13:02:30;;;;;;;17.77;3.20;;;16.90;85.30;;;;;;5034269;28;20021;-67
2022/09/04 13:05:23;;;;;;;7.15;2.30;;;16.90;85.30;;;;;;5025291;28;20041;-68
2022/09/04 13:08:18;;;;;;;11.20;4.22;;;16.80;85.30;;;;;;5028684;28;20021;-69
2022/09/04 13:11:12;;;;;;;13.93;2.80;;;16.90;85.30;;;;;;5026664;28;20487;-70
2022/09/04 13:14:04;;;;;;;10.90;3.35;;;16.80;85.20;;;;;;5036226;28;20064;-71
2022/09/04 13:16:55;;;;;;;8.68;2.47;;;16.80;85.30;;;;;;5036476;28;20037;-69
2022/09/04 13:19:44;;;;;;;16.88;3.78;;;16.80;85.40;;;;;;5028285;28;20021;-70
2022/09/04 13:22:17;;;;;;;15.73;3.20;;;16.80;85.70;;;;;;5031583;28;20025;-70
2022/09/04 13:25:02;;;;;;;7.72;2.97;;;16.80;85.90;;;;;;5036844;28;20030;-70
2022/09/04 13:28:05;;;;;;;10.32;3.45;;;16.80;86.10;;;;;;5034643;28;20372;-70
2022/09/04 13:30:37;;;;;;;7.32;2.88;;;16.80;86.30;;;;;;5036499;28;20085;-70
2022/09/04 13:33:19;;;;;;;16.15;4.72;;;16.80;86.40;;;;;;5029055;28;20033;-70
2022/09/04 13:35:54;;;;;;;9.32;3.08;;;16.70;86.40;;;;;;5036754;28;20049;-70
2022/09/04 13:38:40;;;;;;;12.38;3.72;;;16.80;86.30;;;;;;5033039;28;20036;-69
2022/09/04 13:41:34;;;;;;;15.55;3.50;;;16.80;86.30;;;;;;5029597;28;20053;-69
2022/09/04 13:44:25;;;;;;;9.13;2.28;;;16.80;86.50;;;;;;5028555;28;20033;-70
2022/09/04 13:47:13;;;;;;;15.65;3.90;;;16.70;86.30;;;;;;5034461;28;20037;-70
2022/09/04 13:49:49;;;;;;;23.67;5.63;;;16.70;86.40;;;;;;5029724;28;20808;-71
2022/09/04 13:52:50;;;;;;;14.90;5.05;;;16.70;86.40;;;;;;5036294;28;20425;-70
2022/09/04 13:55:33;;;;;;;10.75;3.92;;;16.70;86.50;;;;;;5032112;28;20586;-69
2022/09/04 13:58:52;;;;;;;10.63;3.35;;;16.70;86.60;;;;;;5026337;28;20030;-69
2022/09/04 14:01:24;;;;;;;10.18;2.78;;;16.70;86.60;;;;;;5017023;28;20041;-69
2022/09/04 14:04:15;;;;;;;13.18;3.42;;;16.70;86.70;;;;;;5026583;28;20033;-71
2022/09/04 14:06:43;;;;;;;11.98;6.32;;;16.70;86.70;;;;;;5030274;28;20021;-70
2022/09/04 14:09:10;;;;;;;14.05;5.63;;;16.70;86.60;;;;;;5028840;28;20480;-70
2022/09/04 14:11:59;;;;;;;18.90;6.57;;;16.70;86.60;;;;;;5026189;28;20017;-71
2022/09/04 14:14:58;;;;;;;12.50;6.35;;;16.70;86.60;;;;;;5034143;28;20026;-73
2022/09/04 14:17:49;;;;;;;9.93;4.75;;;16.70;86.50;;;;;;5002954;28;20080;-71
2022/09/04 14:20:32;;;;;;;13.70;5.25;;;16.70;86.40;;;;;;5031251;28;20506;-71
2022/09/04 14:23:07;;;;;;;13.00;4.13;;;16.70;86.30;;;;;;5030008;28;20060;-71
2022/09/04 14:26:03;;;;;;;11.82;3.83;;;16.60;86.10;;;;;;5033643;28;20294;-71
2022/09/04 14:28:43;;;;;;;14.93;6.30;;;16.60;86.00;;;;;;5032000;28;20115;-71
2022/09/04 14:31:28;;;;;;;17.98;6.90;;;16.60;85.90;;;;;;5035620;28;20081;-70
2022/09/04 14:34:15;;;;;;;16.52;6.18;;;16.70;85.90;;;;;;5025648;28;20017;-71